createdAt,value
2018-05-24T00:00:30.659Z,98.77
2018-05-24T00:01:31.238Z,98.87
2018-05-24T00:02:31.809Z,98.49
2018-05-24T00:03:32.388Z,98.68
2018-05-24T00:04:33.008Z,98.97
2018-05-24T00:05:33.583Z,98.97
2018-05-24T00:06:34.159Z,98.49
2018-05-24T00:07:34.734Z,99.06
2018-05-24T00:08:35.308Z,99.06
2018-05-24T00:09:35.883Z,99.93
2018-05-24T00:10:36.508Z,99.54
2018-05-24T00:11:37.084Z,99.26
2018-05-24T00:12:37.659Z,99.06
2018-05-24T00:13:38.233Z,99.06
2018-05-24T00:14:38.808Z,98.97
2018-05-24T00:15:39.433Z,99.06
2018-05-24T00:16:40.009Z,99.74
2018-05-24T00:17:40.584Z,99.84
2018-05-24T00:18:41.158Z,99.44
2018-05-24T00:19:41.731Z,99.74
2018-05-24T00:20:42.355Z,99.26
2018-05-24T00:21:42.932Z,99.44
2018-05-24T00:22:43.509Z,99.74
2018-05-24T00:23:44.083Z,99.44
2018-05-24T00:24:44.658Z,99.44
2018-05-24T00:25:45.282Z,99.84
2018-05-24T00:26:45.861Z,99.44
2018-05-24T00:27:46.482Z,99.64
2018-05-24T00:28:47.059Z,99.44
2018-05-24T00:29:47.634Z,99.74
2018-05-24T00:30:48.212Z,99.35
2018-05-24T00:31:48.829Z,99.74
2018-05-24T00:32:49.444Z,99.93
2018-05-24T00:33:50.019Z,99.54
2018-05-24T00:34:50.592Z,99.54
2018-05-24T00:35:51.215Z,99.74
2018-05-24T00:36:51.842Z,99.99
2018-05-24T00:37:52.415Z,99.74
2018-05-24T00:38:52.990Z,99.99
2018-05-24T00:39:53.563Z,99.99
2018-05-24T00:40:54.136Z,99.99
2018-05-24T00:41:54.713Z,99.99
2018-05-24T00:42:55.286Z,99.99
2018-05-24T00:43:55.910Z,99.99
2018-05-24T00:44:56.484Z,99.99
2018-05-24T00:45:57.059Z,99.84
2018-05-24T00:46:57.634Z,99.40
2018-05-24T00:47:58.211Z,99.99
2018-05-24T00:48:58.826Z,99.49
2018-05-24T00:49:59.402Z,99.99
2018-05-24T00:50:59.977Z,99.84
2018-05-24T00:52:00.602Z,99.99
2018-05-24T00:53:01.175Z,99.93
2018-05-24T00:54:01.749Z,99.99
2018-05-24T00:55:02.374Z,99.64
2018-05-24T00:56:02.949Z,99.64
2018-05-24T00:57:03.525Z,99.64
2018-05-24T00:58:04.100Z,99.44
2018-05-24T00:59:04.683Z,99.69
2018-05-24T01:00:05.250Z,99.84
2018-05-24T01:01:05.826Z,99.44
2018-05-24T01:02:06.398Z,99.59
2018-05-24T01:03:06.974Z,99.99
2018-05-24T01:04:07.548Z,99.99
2018-05-24T01:05:08.123Z,99.69
2018-05-24T01:06:08.746Z,99.98
2018-05-24T01:07:09.319Z,99.99
2018-05-24T01:08:09.895Z,99.98
2018-05-24T01:09:10.520Z,99.78
2018-05-24T01:10:11.095Z,99.99
2018-05-24T01:11:11.669Z,99.99
2018-05-24T01:12:12.243Z,99.99
2018-05-24T01:13:12.819Z,99.99
2018-05-24T01:14:13.444Z,99.99
2018-05-24T01:15:14.021Z,99.99
2018-05-24T01:16:14.646Z,99.99
2018-05-24T01:17:15.220Z,99.99
2018-05-24T01:18:15.793Z,99.99
2018-05-24T01:19:16.367Z,99.99
2018-05-24T01:20:16.941Z,99.99
2018-05-24T01:21:17.565Z,99.99
2018-05-24T01:22:18.142Z,99.99
2018-05-24T01:23:18.716Z,99.99
2018-05-24T01:24:19.340Z,99.99
2018-05-24T01:25:19.968Z,99.99
2018-05-24T01:26:20.538Z,99.99
2018-05-24T01:27:21.117Z,99.99
2018-05-24T01:28:21.735Z,99.99
2018-05-24T01:29:22.306Z,99.99
2018-05-24T01:30:22.881Z,99.99
2018-05-24T01:31:23.454Z,99.99
2018-05-24T01:32:24.030Z,99.99
2018-05-24T01:33:24.606Z,99.99
2018-05-24T01:34:25.178Z,99.99
2018-05-24T01:35:25.753Z,99.99
2018-05-24T01:36:26.327Z,99.99
2018-05-24T01:37:26.901Z,99.99
2018-05-24T01:38:27.527Z,99.99
2018-05-24T01:39:28.176Z,99.99
2018-05-24T01:40:28.676Z,99.99
2018-05-24T01:41:29.249Z,99.99
2018-05-24T01:42:29.872Z,99.99
2018-05-24T01:43:30.445Z,99.99
2018-05-24T01:44:31.019Z,99.99
2018-05-24T01:45:31.592Z,99.99
2018-05-24T01:46:32.166Z,99.99
2018-05-24T01:47:32.741Z,99.99
2018-05-24T01:48:33.369Z,99.99
2018-05-24T01:49:33.984Z,99.99
2018-05-24T01:50:34.558Z,99.99
2018-05-24T01:51:35.133Z,99.99
2018-05-24T01:52:35.710Z,99.99
2018-05-24T01:53:36.283Z,99.99
2018-05-24T01:54:36.907Z,99.99
2018-05-24T01:55:37.480Z,99.99
2018-05-24T01:56:38.055Z,99.99
2018-05-24T01:57:38.628Z,99.99
2018-05-24T01:58:39.203Z,99.99
2018-05-24T01:59:39.778Z,99.99
2018-05-24T02:00:40.402Z,99.99
2018-05-24T02:01:40.978Z,99.99
2018-05-24T02:02:41.553Z,99.99
2018-05-24T02:03:42.177Z,99.99
2018-05-24T02:04:42.752Z,99.99
2018-05-24T02:05:43.325Z,99.99
2018-05-24T02:06:43.905Z,99.99
2018-05-24T02:07:44.476Z,99.99
2018-05-24T02:08:45.052Z,99.99
2018-05-24T02:09:45.674Z,99.99
2018-05-24T02:10:46.247Z,99.99
2018-05-24T02:11:46.824Z,99.99
2018-05-24T02:12:47.398Z,99.99
2018-05-24T02:13:47.971Z,99.99
2018-05-24T02:14:48.546Z,99.99
2018-05-24T02:15:49.124Z,99.99
2018-05-24T02:16:49.740Z,99.99
2018-05-24T02:17:50.313Z,99.99
2018-05-24T02:18:50.928Z,99.99
2018-05-24T02:19:51.555Z,99.99
2018-05-24T02:20:52.172Z,99.99
2018-05-24T02:21:52.742Z,99.99
2018-05-24T02:22:53.317Z,99.99
2018-05-24T02:23:53.891Z,99.99
2018-05-24T02:24:54.517Z,99.99
2018-05-24T02:25:55.092Z,99.99
2018-05-24T02:26:55.669Z,99.99
2018-05-24T02:27:56.241Z,99.99
2018-05-24T02:28:56.818Z,99.99
2018-05-24T02:29:57.393Z,99.99
2018-05-24T02:30:57.966Z,99.99
2018-05-24T02:31:58.548Z,99.99
2018-05-24T02:32:59.114Z,99.99
2018-05-24T02:33:59.689Z,99.99
2018-05-24T02:35:00.269Z,99.99
2018-05-24T02:36:00.898Z,99.99
2018-05-24T02:37:01.451Z,99.99
2018-05-24T02:38:02.076Z,99.99
2018-05-24T02:39:02.651Z,99.99
2018-05-24T02:40:03.274Z,99.99
2018-05-24T02:41:03.895Z,99.99
2018-05-24T02:42:04.509Z,99.99
2018-05-24T02:43:05.092Z,99.99
2018-05-24T02:44:05.708Z,99.99
2018-05-24T02:45:06.282Z,99.99
2018-05-24T02:46:06.872Z,99.99
2018-05-24T02:47:07.478Z,99.99
2018-05-24T02:48:08.045Z,99.99
2018-05-24T02:49:08.621Z,99.99
2018-05-24T02:50:09.194Z,99.99
2018-05-24T02:51:09.772Z,99.99
2018-05-24T02:52:10.344Z,99.99
2018-05-24T02:53:10.918Z,99.99
2018-05-24T02:54:11.493Z,99.99
2018-05-24T02:55:12.124Z,99.99
2018-05-24T02:56:12.693Z,99.99
2018-05-24T02:57:13.267Z,99.99
2018-05-24T02:58:13.891Z,99.99
2018-05-24T02:59:14.464Z,99.99
2018-05-24T03:00:15.039Z,99.99
2018-05-24T03:01:15.615Z,99.99
2018-05-24T03:02:16.241Z,99.99
2018-05-24T03:03:16.812Z,99.99
2018-05-24T03:04:17.385Z,99.99
2018-05-24T03:05:17.961Z,99.99
2018-05-24T03:06:18.534Z,99.99
2018-05-24T03:07:19.112Z,99.99
2018-05-24T03:08:19.681Z,99.99
2018-05-24T03:09:20.256Z,99.99
2018-05-24T03:10:20.829Z,99.99
2018-05-24T03:11:21.402Z,99.99
2018-05-24T03:12:21.976Z,99.99
2018-05-24T03:13:22.551Z,99.99
2018-05-24T03:14:23.144Z,99.99
2018-05-24T03:15:23.750Z,99.99
2018-05-24T03:16:24.324Z,99.99
2018-05-24T03:17:24.949Z,99.99
2018-05-24T03:18:25.724Z,99.99
2018-05-24T03:19:26.299Z,99.99
2018-05-24T03:20:26.875Z,99.99
2018-05-24T03:21:27.448Z,99.99
2018-05-24T03:22:28.024Z,99.99
2018-05-24T03:23:28.599Z,99.99
2018-05-24T03:24:29.174Z,99.99
2018-05-24T03:25:29.749Z,99.99
2018-05-24T03:26:30.322Z,99.99
2018-05-24T03:27:30.897Z,99.99
2018-05-24T03:28:31.471Z,99.99
2018-05-24T03:29:32.046Z,99.99
2018-05-24T03:30:32.670Z,99.99
2018-05-24T03:31:33.246Z,99.99
2018-05-24T03:32:33.944Z,99.99
2018-05-24T03:33:34.447Z,99.99
2018-05-24T03:34:35.070Z,99.99
2018-05-24T03:35:35.645Z,99.99
2018-05-24T03:36:36.218Z,99.99
2018-05-24T03:37:36.793Z,99.99
2018-05-24T03:38:37.367Z,99.99
2018-05-24T03:39:37.943Z,99.99
2018-05-24T03:40:38.515Z,99.99
2018-05-24T03:41:39.090Z,99.99
2018-05-24T03:42:39.712Z,99.99
2018-05-24T03:43:40.324Z,99.99
2018-05-24T03:44:40.899Z,99.99
2018-05-24T03:45:41.514Z,99.99
2018-05-24T03:46:42.093Z,99.99
2018-05-24T03:47:42.703Z,99.99
2018-05-24T03:48:43.281Z,99.99
2018-05-24T03:49:43.852Z,99.99
2018-05-24T03:50:44.426Z,99.99
2018-05-24T03:51:45.049Z,99.99
2018-05-24T03:52:45.674Z,99.99
2018-05-24T03:53:46.248Z,99.99
2018-05-24T03:54:46.825Z,99.99
2018-05-24T03:55:47.447Z,99.99
2018-05-24T03:56:48.067Z,99.99
2018-05-24T03:57:48.739Z,99.99
2018-05-24T03:58:49.212Z,99.99
2018-05-24T03:59:49.788Z,99.99
2018-05-24T04:00:50.363Z,99.99
2018-05-24T04:01:50.936Z,99.99
2018-05-24T04:02:51.512Z,99.99
2018-05-24T04:03:52.085Z,99.99
2018-05-24T04:04:52.660Z,99.99
2018-05-24T04:05:53.235Z,99.99
2018-05-24T04:06:53.851Z,99.99
2018-05-24T04:07:54.429Z,99.99
2018-05-24T04:08:55.044Z,99.99
2018-05-24T04:09:55.616Z,99.99
2018-05-24T04:10:56.241Z,99.99
2018-05-24T04:11:56.845Z,99.99
2018-05-24T04:12:57.440Z,99.99
2018-05-24T04:13:58.065Z,99.99
2018-05-24T04:14:58.641Z,99.99
2018-05-24T04:15:59.215Z,99.99
2018-05-24T04:16:59.787Z,99.99
2018-05-24T04:18:00.362Z,99.99
2018-05-24T04:19:00.937Z,99.99
2018-05-24T04:20:01.520Z,99.99
2018-05-24T04:21:02.088Z,99.99
2018-05-24T04:22:02.661Z,99.99
2018-05-24T04:23:03.239Z,99.99
2018-05-24T04:24:03.853Z,99.99
2018-05-24T04:25:04.427Z,99.99
2018-05-24T04:26:05.003Z,99.99
2018-05-24T04:27:05.633Z,99.99
2018-05-24T04:28:06.204Z,99.99
2018-05-24T04:29:06.828Z,99.99
2018-05-24T04:30:07.405Z,99.99
2018-05-24T04:31:07.979Z,99.99
2018-05-24T04:32:08.552Z,99.99
2018-05-24T04:33:09.176Z,99.99
2018-05-24T04:34:09.701Z,99.99
2018-05-24T04:35:10.273Z,99.99
2018-05-24T04:36:10.847Z,99.99
2018-05-24T04:37:11.422Z,99.99
2018-05-24T04:38:11.994Z,99.99
2018-05-24T04:39:12.568Z,99.99
2018-05-24T04:40:13.141Z,99.99
2018-05-24T04:41:13.764Z,99.99
2018-05-24T04:42:14.338Z,99.99
2018-05-24T04:43:14.914Z,99.99
2018-05-24T04:44:15.543Z,99.99
2018-05-24T04:45:16.111Z,99.99
2018-05-24T04:46:16.684Z,99.99
2018-05-24T04:47:17.264Z,99.99
2018-05-24T04:48:17.836Z,99.99
2018-05-24T04:49:18.458Z,99.99
2018-05-24T04:50:19.032Z,99.99
2018-05-24T04:51:19.608Z,99.99
2018-05-24T04:52:20.178Z,99.99
2018-05-24T04:53:20.753Z,99.99
2018-05-24T04:54:21.370Z,99.99
2018-05-24T04:55:21.946Z,99.99
2018-05-24T04:56:22.560Z,99.99
2018-05-24T04:57:23.185Z,99.99
2018-05-24T04:58:23.759Z,99.99
2018-05-24T04:59:24.332Z,99.99
2018-05-24T05:00:24.955Z,99.99
2018-05-24T05:01:25.570Z,99.99
2018-05-24T05:02:26.144Z,99.99
2018-05-24T05:03:26.718Z,99.99
2018-05-24T05:04:27.292Z,99.99
2018-05-24T05:05:27.870Z,99.99
2018-05-24T05:06:28.440Z,99.99
2018-05-24T05:07:29.067Z,99.99
2018-05-24T05:08:29.640Z,99.99
2018-05-24T05:09:30.214Z,99.99
2018-05-24T05:10:30.788Z,99.99
2018-05-24T05:11:31.363Z,99.99
2018-05-24T05:12:31.939Z,99.99
2018-05-24T05:13:32.578Z,99.99
2018-05-24T05:14:33.177Z,99.99
2018-05-24T05:15:33.800Z,99.99
2018-05-24T05:16:34.415Z,99.99
2018-05-24T05:17:34.991Z,99.99
2018-05-24T05:18:35.614Z,99.99
2018-05-24T05:19:36.247Z,99.99
2018-05-24T05:20:36.763Z,99.99
2018-05-24T05:21:37.336Z,99.99
2018-05-24T05:22:37.913Z,99.99
2018-05-24T05:23:38.538Z,99.99
2018-05-24T05:24:39.111Z,99.99
2018-05-24T05:25:39.684Z,99.99
2018-05-24T05:26:40.259Z,99.99
2018-05-24T05:27:40.834Z,99.99
2018-05-24T05:28:41.408Z,99.99
2018-05-24T05:29:41.983Z,99.99
2018-05-24T05:30:42.725Z,99.99
2018-05-24T05:31:43.371Z,99.99
2018-05-24T05:32:43.990Z,99.99
2018-05-24T05:33:44.560Z,99.99
2018-05-24T05:34:45.134Z,99.99
2018-05-24T05:35:45.709Z,99.99
2018-05-24T05:36:46.383Z,99.99
2018-05-24T05:37:46.961Z,99.99
2018-05-24T05:38:47.531Z,99.99
2018-05-24T05:39:48.103Z,99.99
2018-05-24T05:40:48.681Z,99.99
2018-05-24T05:41:49.256Z,99.99
2018-05-24T05:42:49.871Z,99.99
2018-05-24T05:43:50.442Z,99.99
2018-05-24T05:44:51.056Z,99.99
2018-05-24T05:45:51.592Z,99.99
2018-05-24T05:46:52.169Z,99.99
2018-05-24T05:47:52.743Z,99.99
2018-05-24T05:48:53.409Z,99.99
2018-05-24T05:49:53.987Z,99.99
2018-05-24T05:50:54.603Z,99.99
2018-05-24T05:51:55.185Z,99.99
2018-05-24T05:52:55.794Z,99.99
2018-05-24T05:53:56.419Z,99.99
2018-05-24T05:54:56.995Z,99.99
2018-05-24T05:55:57.572Z,99.99
2018-05-24T05:56:58.184Z,99.99
2018-05-24T05:57:58.810Z,99.99
2018-05-24T05:58:59.384Z,99.99
2018-05-24T05:59:59.959Z,99.99
2018-05-24T06:01:00.536Z,99.99
2018-05-24T06:02:01.177Z,99.99
2018-05-24T06:03:01.760Z,99.99
2018-05-24T06:04:02.374Z,99.99
2018-05-24T06:05:02.999Z,99.99
2018-05-24T06:06:03.615Z,99.99
2018-05-24T06:07:04.190Z,99.99
2018-05-24T06:08:04.763Z,99.99
2018-05-24T06:09:05.337Z,99.99
2018-05-24T06:10:05.961Z,99.99
2018-05-24T06:11:06.536Z,99.99
2018-05-24T06:12:07.160Z,99.99
2018-05-24T06:13:07.735Z,99.99
2018-05-24T06:14:08.311Z,99.99
2018-05-24T06:15:08.884Z,99.99
2018-05-24T06:16:09.463Z,99.99
2018-05-24T06:17:10.130Z,99.99
2018-05-24T06:18:10.703Z,99.99
2018-05-24T06:19:11.278Z,99.99
2018-05-24T06:20:11.851Z,99.99
2018-05-24T06:21:12.426Z,99.99
2018-05-24T06:22:12.999Z,99.99
2018-05-24T06:23:13.572Z,99.99
2018-05-24T06:24:14.146Z,99.99
2018-05-24T06:25:14.732Z,99.99
2018-05-24T06:26:15.391Z,99.99
2018-05-24T06:27:16.017Z,99.99
2018-05-24T06:28:16.590Z,99.99
2018-05-24T06:29:17.163Z,99.99
2018-05-24T06:30:17.737Z,99.99
2018-05-24T06:31:18.319Z,99.99
2018-05-24T06:32:18.889Z,99.99
2018-05-24T06:33:19.467Z,99.99
2018-05-24T06:34:20.038Z,99.99
2018-05-24T06:35:20.615Z,99.99
2018-05-24T06:36:21.191Z,99.99
2018-05-24T06:37:21.762Z,99.99
2018-05-24T06:38:22.335Z,99.99
2018-05-24T06:39:22.908Z,99.99
2018-05-24T06:40:23.535Z,99.99
2018-05-24T06:41:24.110Z,99.99
2018-05-24T06:42:24.681Z,99.99
2018-05-24T06:43:25.307Z,99.99
2018-05-24T06:44:25.880Z,99.99
2018-05-24T06:45:26.459Z,99.99
2018-05-24T06:46:27.164Z,99.99
2018-05-24T06:47:27.848Z,99.99
2018-05-24T06:48:28.423Z,99.99
2018-05-24T06:49:28.996Z,99.99
2018-05-24T06:50:29.572Z,99.99
2018-05-24T06:51:30.149Z,99.99
2018-05-24T06:52:30.725Z,99.99
2018-05-24T06:53:31.299Z,99.99
2018-05-24T06:54:31.872Z,99.99
2018-05-24T06:55:32.453Z,99.99
2018-05-24T06:56:33.065Z,99.99
2018-05-24T06:57:33.638Z,99.99
2018-05-24T06:58:34.255Z,99.99
2018-05-24T06:59:34.871Z,99.99
2018-05-24T07:00:35.447Z,99.99
2018-05-24T07:01:36.073Z,99.99
2018-05-24T07:02:36.648Z,99.99
2018-05-24T07:03:37.364Z,99.99
2018-05-24T07:04:37.889Z,99.99
2018-05-24T07:05:38.464Z,99.99
2018-05-24T07:06:39.039Z,99.99
2018-05-24T07:07:39.613Z,99.99
2018-05-24T07:08:40.187Z,99.99
2018-05-24T07:09:40.761Z,99.99
2018-05-24T07:10:41.334Z,99.99
2018-05-24T07:11:41.909Z,99.99
2018-05-24T07:12:42.682Z,99.99
2018-05-24T07:13:43.259Z,99.99
2018-05-24T07:14:43.830Z,99.99
2018-05-24T07:15:44.403Z,99.99
2018-05-24T07:16:44.975Z,99.99
2018-05-24T07:17:45.549Z,99.99
2018-05-24T07:18:46.125Z,99.99
2018-05-24T07:19:46.736Z,99.99
2018-05-24T07:20:47.314Z,99.99
2018-05-24T07:21:47.884Z,99.99
2018-05-24T07:22:48.456Z,99.99
2018-05-24T07:23:49.030Z,99.99
2018-05-24T07:24:49.654Z,99.99
2018-05-24T07:25:50.230Z,99.99
2018-05-24T07:26:50.806Z,99.99
2018-05-24T07:27:51.375Z,99.99
2018-05-24T07:28:51.999Z,99.99
2018-05-24T07:29:52.574Z,99.99
2018-05-24T07:30:53.200Z,99.99
2018-05-24T07:31:53.777Z,99.99
2018-05-24T07:32:54.346Z,99.99
2018-05-24T07:33:54.921Z,99.99
2018-05-24T07:34:55.495Z,99.99
2018-05-24T07:35:56.069Z,99.99
2018-05-24T07:36:56.643Z,99.99
2018-05-24T07:37:57.215Z,99.99
2018-05-24T07:38:57.792Z,99.99
2018-05-24T07:39:58.364Z,99.99
2018-05-24T07:40:58.937Z,99.99
2018-05-24T07:41:59.512Z,99.99
2018-05-24T07:43:00.142Z,99.99
2018-05-24T07:44:00.761Z,99.99
2018-05-24T07:45:01.472Z,99.99
2018-05-24T07:46:01.954Z,99.99
2018-05-24T07:47:02.579Z,99.99
2018-05-24T07:48:03.155Z,99.99
2018-05-24T07:49:03.771Z,99.99
2018-05-24T07:50:04.342Z,99.99
2018-05-24T07:51:04.921Z,99.99
2018-05-24T07:52:05.489Z,99.99
2018-05-24T07:53:06.067Z,99.99
2018-05-24T07:54:06.637Z,99.99
2018-05-24T07:55:07.210Z,99.99
2018-05-24T07:56:07.782Z,99.99
2018-05-24T07:57:08.356Z,99.99
2018-05-24T07:58:08.932Z,99.99
2018-05-24T07:59:09.556Z,99.99
2018-05-24T08:00:10.131Z,99.99
2018-05-24T08:01:10.704Z,99.99
2018-05-24T08:02:11.326Z,99.99
2018-05-24T08:03:11.899Z,99.99
2018-05-24T08:04:12.473Z,99.99
2018-05-24T08:05:13.048Z,99.99
2018-05-24T08:06:13.621Z,99.99
2018-05-24T08:07:14.194Z,99.99
2018-05-24T08:08:14.768Z,99.99
2018-05-24T08:09:15.341Z,99.99
2018-05-24T08:10:15.967Z,99.99
2018-05-24T08:11:16.547Z,99.99
2018-05-24T08:12:17.159Z,99.99
2018-05-24T08:13:17.743Z,99.99
2018-05-24T08:14:18.312Z,99.99
2018-05-24T08:15:18.884Z,99.99
2018-05-24T08:16:19.472Z,99.99
2018-05-24T08:17:20.184Z,99.99
2018-05-24T08:18:20.962Z,99.99
2018-05-24T08:19:21.543Z,99.99
2018-05-24T08:20:22.120Z,99.99
2018-05-24T08:21:22.731Z,99.99
2018-05-24T08:22:23.307Z,99.99
2018-05-24T08:23:23.880Z,99.99
2018-05-24T08:24:24.455Z,99.99
2018-05-24T08:25:25.031Z,99.99
2018-05-24T08:26:25.606Z,99.99
2018-05-24T08:27:26.380Z,99.99
2018-05-24T08:28:26.953Z,99.99
2018-05-24T08:29:27.527Z,99.99
2018-05-24T08:30:28.104Z,99.99
2018-05-24T08:31:28.679Z,99.99
2018-05-24T08:32:29.252Z,99.99
2018-05-24T08:33:29.875Z,99.99
2018-05-24T08:34:30.450Z,99.99
2018-05-24T08:35:31.026Z,99.99
2018-05-24T08:36:31.690Z,99.99
2018-05-24T08:37:32.225Z,99.99
2018-05-24T08:38:32.803Z,99.99
2018-05-24T08:39:33.376Z,99.99
2018-05-24T08:40:34.028Z,99.99
2018-05-24T08:41:34.528Z,99.99
2018-05-24T08:42:35.301Z,99.99
2018-05-24T08:43:35.877Z,99.99
2018-05-24T08:44:36.453Z,99.99
2018-05-24T08:45:37.026Z,99.99
2018-05-24T08:46:37.601Z,99.99
2018-05-24T08:47:38.179Z,99.99
2018-05-24T08:48:38.803Z,99.99
2018-05-24T08:49:39.428Z,99.99
2018-05-24T08:50:40.005Z,99.99
2018-05-24T08:51:40.580Z,99.99
2018-05-24T08:52:41.156Z,99.99
2018-05-24T08:53:41.731Z,99.99
2018-05-24T08:54:42.355Z,99.99
2018-05-24T08:55:42.929Z,99.99
2018-05-24T08:56:43.505Z,99.99
2018-05-24T08:57:44.080Z,99.99
2018-05-24T08:58:44.657Z,99.99
2018-05-24T08:59:45.229Z,99.99
2018-05-24T09:00:45.806Z,99.99
2018-05-24T09:01:46.382Z,99.99
2018-05-24T09:02:46.958Z,99.99
2018-05-24T09:03:47.587Z,99.99
2018-05-24T09:04:48.161Z,99.99
2018-05-24T09:05:48.733Z,99.99
2018-05-24T09:06:49.308Z,99.99
2018-05-24T09:07:49.884Z,99.99
2018-05-24T09:08:50.468Z,99.99
2018-05-24T09:09:51.034Z,99.99
2018-05-24T09:10:51.659Z,99.99
2018-05-24T09:11:52.233Z,99.99
2018-05-24T09:12:52.809Z,99.99
2018-05-24T09:13:53.427Z,99.99
2018-05-24T09:14:54.006Z,99.99
2018-05-24T09:15:54.578Z,99.99
2018-05-24T09:16:55.154Z,99.99
2018-05-24T09:17:55.735Z,99.99
2018-05-24T09:18:56.308Z,99.99
2018-05-24T09:19:56.933Z,99.98
2018-05-24T09:20:57.507Z,99.99
2018-05-24T09:21:58.081Z,99.99
2018-05-24T09:22:58.706Z,99.99
2018-05-24T09:23:59.279Z,99.99
2018-05-24T09:24:59.855Z,99.99
2018-05-24T09:26:00.430Z,99.99
2018-05-24T09:27:01.002Z,99.99
2018-05-24T09:28:01.576Z,99.99
2018-05-24T09:29:02.151Z,99.99
2018-05-24T09:30:02.775Z,99.99
2018-05-24T09:31:03.349Z,99.99
2018-05-24T09:32:03.923Z,99.99
2018-05-24T09:33:04.498Z,99.99
2018-05-24T09:34:05.072Z,99.99
2018-05-24T09:35:05.645Z,99.99
2018-05-24T09:36:06.221Z,99.99
2018-05-24T09:37:06.846Z,99.99
2018-05-24T09:38:07.420Z,99.99
2018-05-24T09:39:07.995Z,99.99
2018-05-24T09:40:08.568Z,99.99
2018-05-24T09:41:09.142Z,99.99
2018-05-24T09:42:09.821Z,99.99
2018-05-24T09:43:10.343Z,99.99
2018-05-24T09:44:10.917Z,99.99
2018-05-24T09:45:11.491Z,99.99
2018-05-24T09:46:12.069Z,99.99
2018-05-24T09:47:12.640Z,99.99
2018-05-24T09:48:13.266Z,99.99
2018-05-24T09:49:13.846Z,99.99
2018-05-24T09:50:14.414Z,99.99
2018-05-24T09:51:14.989Z,99.99
2018-05-24T09:52:15.564Z,99.99
2018-05-24T09:53:16.140Z,99.99
2018-05-24T09:54:16.713Z,99.99
2018-05-24T09:55:17.435Z,99.99
2018-05-24T09:56:17.909Z,99.99
2018-05-24T09:57:18.535Z,99.99
2018-05-24T09:58:19.161Z,99.99
2018-05-24T09:59:19.735Z,99.99
2018-05-24T10:00:20.309Z,99.99
2018-05-24T10:01:20.882Z,99.99
2018-05-24T10:02:21.454Z,99.99
2018-05-24T10:03:22.029Z,99.99
2018-05-24T10:04:22.601Z,99.99
2018-05-24T10:05:23.174Z,99.99
2018-05-24T10:06:23.749Z,99.99
2018-05-24T10:07:24.321Z,99.99
2018-05-24T10:08:24.946Z,99.99
2018-05-24T10:09:25.520Z,99.99
2018-05-24T10:10:26.123Z,99.99
2018-05-24T10:11:26.669Z,99.99
2018-05-24T10:12:27.292Z,99.99
2018-05-24T10:13:27.867Z,99.99
2018-05-24T10:14:28.445Z,99.99
2018-05-24T10:15:29.066Z,99.99
2018-05-24T10:16:29.697Z,99.99
2018-05-24T10:17:30.214Z,99.99
2018-05-24T10:18:30.787Z,99.99
2018-05-24T10:19:31.364Z,99.99
2018-05-24T10:20:31.946Z,99.99
2018-05-24T10:21:32.510Z,99.99
2018-05-24T10:22:33.085Z,99.99
2018-05-24T10:23:33.807Z,99.99
2018-05-24T10:24:34.286Z,99.99
2018-05-24T10:25:34.861Z,99.99
2018-05-24T10:26:35.435Z,99.99
2018-05-24T10:27:36.059Z,99.99
2018-05-24T10:28:36.633Z,99.99
2018-05-24T10:29:37.210Z,99.99
2018-05-24T10:30:37.827Z,99.99
2018-05-24T10:31:38.402Z,99.99
2018-05-24T10:32:38.973Z,99.99
2018-05-24T10:33:39.548Z,99.99
2018-05-24T10:34:40.215Z,99.99
2018-05-24T10:35:40.791Z,99.99
2018-05-24T10:36:41.365Z,99.99
2018-05-24T10:37:41.939Z,99.99
2018-05-24T10:38:42.513Z,99.99
2018-05-24T10:39:43.088Z,99.99
2018-05-24T10:40:43.660Z,99.99
2018-05-24T10:41:44.234Z,99.99
2018-05-24T10:42:44.809Z,99.99
2018-05-24T10:43:45.381Z,99.99
2018-05-24T10:44:46.005Z,99.99
2018-05-24T10:45:46.580Z,99.99
2018-05-24T10:46:47.159Z,99.99
2018-05-24T10:47:47.730Z,99.99
2018-05-24T10:48:48.303Z,99.99
2018-05-24T10:49:48.878Z,99.99
2018-05-24T10:50:49.451Z,99.99
2018-05-24T10:51:50.025Z,99.99
2018-05-24T10:52:50.648Z,99.99
2018-05-24T10:53:51.224Z,99.99
2018-05-24T10:54:51.848Z,99.99
2018-05-24T10:55:52.429Z,99.99
2018-05-24T10:56:52.998Z,99.99
2018-05-24T10:57:53.622Z,99.99
2018-05-24T10:58:54.196Z,99.99
2018-05-24T10:59:54.770Z,99.99
2018-05-24T11:00:55.350Z,99.99
2018-05-24T11:01:55.920Z,99.99
2018-05-24T11:02:56.651Z,99.99
2018-05-24T11:03:57.218Z,99.99
2018-05-24T11:04:57.792Z,99.99
2018-05-24T11:05:58.367Z,99.99
2018-05-24T11:06:58.941Z,99.99
2018-05-24T11:07:59.514Z,99.99
2018-05-24T11:09:00.089Z,99.99
2018-05-24T11:10:00.662Z,99.99
2018-05-24T11:11:01.235Z,99.99
2018-05-24T11:12:01.809Z,99.99
2018-05-24T11:13:02.437Z,99.99
2018-05-24T11:14:03.007Z,99.99
2018-05-24T11:15:03.583Z,99.99
2018-05-24T11:16:04.196Z,99.99
2018-05-24T11:17:04.974Z,99.99
2018-05-24T11:18:05.545Z,99.99
2018-05-24T11:19:06.118Z,99.99
2018-05-24T11:20:06.693Z,99.99
2018-05-24T11:21:07.319Z,99.99
2018-05-24T11:22:07.894Z,99.99
2018-05-24T11:23:08.476Z,99.99
2018-05-24T11:24:09.039Z,99.99
2018-05-24T11:25:09.654Z,99.99
2018-05-24T11:26:10.189Z,99.99
2018-05-24T11:27:10.765Z,99.99
2018-05-24T11:28:11.342Z,99.99
2018-05-24T11:29:11.919Z,99.99
2018-05-24T11:30:12.492Z,99.99
2018-05-24T11:31:13.111Z,99.99
2018-05-24T11:32:13.885Z,99.99
2018-05-24T11:33:14.463Z,99.99
2018-05-24T11:34:15.036Z,99.99
2018-05-24T11:35:15.714Z,99.99
2018-05-24T11:36:16.329Z,99.99
2018-05-24T11:37:16.961Z,99.99
2018-05-24T11:38:17.477Z,99.99
2018-05-24T11:39:18.049Z,99.99
2018-05-24T11:40:18.623Z,99.99
2018-05-24T11:41:19.267Z,99.99
2018-05-24T11:42:19.771Z,99.99
2018-05-24T11:43:20.386Z,99.99
2018-05-24T11:44:20.920Z,99.99
2018-05-24T11:45:21.495Z,99.99
2018-05-24T11:46:22.111Z,99.99
2018-05-24T11:47:22.685Z,99.99
2018-05-24T11:48:23.259Z,99.99
2018-05-24T11:49:23.886Z,99.99
2018-05-24T11:50:24.459Z,99.99
2018-05-24T11:51:25.088Z,99.99
2018-05-24T11:52:25.656Z,99.99
2018-05-24T11:53:26.231Z,99.99
2018-05-24T11:54:26.855Z,99.99
2018-05-24T11:55:27.428Z,99.99
2018-05-24T11:56:28.004Z,99.99
2018-05-24T11:57:28.577Z,99.99
2018-05-24T11:58:29.154Z,99.99
2018-05-24T11:59:29.728Z,99.99
2018-05-24T12:00:30.303Z,99.99
2018-05-24T12:01:30.921Z,99.99
2018-05-24T12:02:31.530Z,99.99
2018-05-24T12:03:32.108Z,99.99
2018-05-24T12:04:32.719Z,99.99
2018-05-24T12:05:33.293Z,99.99
2018-05-24T12:06:33.867Z,99.99
2018-05-24T12:07:34.442Z,99.99
2018-05-24T12:08:35.215Z,99.99
2018-05-24T12:09:35.791Z,99.99
2018-05-24T12:10:36.364Z,99.99
2018-05-24T12:11:36.940Z,99.99
2018-05-24T12:12:37.513Z,99.99
2018-05-24T12:13:38.084Z,99.99
2018-05-24T12:14:38.710Z,99.99
2018-05-24T12:15:39.333Z,99.99
2018-05-24T12:16:39.907Z,99.99
2018-05-24T12:17:40.481Z,99.99
2018-05-24T12:18:41.057Z,99.99
2018-05-24T12:19:41.630Z,99.99
2018-05-24T12:20:42.204Z,99.99
2018-05-24T12:21:42.781Z,99.99
2018-05-24T12:22:43.354Z,99.99
2018-05-24T12:23:43.990Z,99.99
2018-05-24T12:24:44.551Z,99.99
2018-05-24T12:25:45.124Z,99.99
2018-05-24T12:26:45.704Z,99.99
2018-05-24T12:27:46.273Z,99.99
2018-05-24T12:28:46.846Z,99.99
2018-05-24T12:29:47.472Z,99.99
2018-05-24T12:30:48.046Z,99.99
2018-05-24T12:31:48.621Z,99.99
2018-05-24T12:32:49.245Z,99.99
2018-05-24T12:33:49.818Z,99.99
2018-05-24T12:34:50.392Z,99.99
2018-05-24T12:35:50.964Z,99.99
2018-05-24T12:36:51.540Z,99.99
2018-05-24T12:37:52.114Z,99.99
2018-05-24T12:38:52.690Z,99.99
2018-05-24T12:39:53.304Z,99.99
2018-05-24T12:40:53.878Z,99.99
2018-05-24T12:41:54.498Z,99.99
2018-05-24T12:42:55.030Z,99.99
2018-05-24T12:43:55.601Z,99.99
2018-05-24T12:44:56.176Z,99.99
2018-05-24T12:45:56.799Z,99.99
2018-05-24T12:46:57.373Z,99.99
2018-05-24T12:47:57.948Z,99.99
2018-05-24T12:48:58.584Z,99.99
2018-05-24T12:49:59.198Z,99.99
2018-05-24T12:50:59.772Z,99.99
2018-05-24T12:52:00.398Z,99.99
2018-05-24T12:53:00.973Z,99.99
2018-05-24T12:54:01.548Z,99.99
2018-05-24T12:55:02.164Z,99.99
2018-05-24T12:56:02.736Z,99.99
2018-05-24T12:57:03.311Z,99.99
2018-05-24T12:58:03.885Z,99.99
2018-05-24T12:59:04.455Z,99.99
2018-05-24T13:00:05.031Z,99.99